KSHL

Sheldon Regional Airport

Sheldon, Iowa, USA
METAR KSHL 110155Z AUTO 18006KT 10SM CLR M08/M08 A3003 RMK AO2
Observed Flight Rules
Dec-11 @ 01:55 UTC (31 minutes ago) Visual Flight Rules
Wind Visibility Clouds
180° at 6 knots 10 miles
  • Clear skies
Temperatures Readings
Current -8°C / 18°F
Dewpoint -8°C / 18°F
Humidity 100%
Altimeter 30.03" Hg
Pressure 1017 hPa
Elevation 432
METAR KSHL 110155Z AUTO 18006KT 10SM CLR M08/M08 A3003 RMK AO2
Observed Flight Rules
Dec-11 @ 01:55 UTC
(31 minutes ago)
VFR
Wind Visibility
180° at 6 knots 10 miles
Clouds
  • Clear skies
Temperature Dewpoint
-8°C / 18°F -8°C / 18°F
Humidity Altimeter Pressure
100% 30.03" Hg 1017 hPa